Earls Colne, United Kingdom
Current Conditions -  °F | °C
As of 4:50 AM on Sunday 26 Oct 2014 (Local Time) from EGUW Reporting Station
Scattered Clouds Scattered Clouds  
Wind Chill: 11°   Ceiling: Unl
Heat Index: 11°   Visibility: 6mi
Dew Point:   Wind: 12mph
Humidity: 76%   Direction: 200°SSW
Pressure: 30.12"   Gusts: NA
Location:  51.93°N, 0.7°E
Report Text: EGUW 260350Z AUTO 20010KT 9999 SCT230/// 11/07 Q1020
Loading
Personal Weather Stations






























Interactive Weather Map
Tropical Storm Tracking
New forecast layout! Learn more

10-Day Weather Forecast

Advertisements
Track Severe Weather on mobile